Time;durP1;ratioP1;P1;durP2;ratioP2;P2;SDS_P1;SDS_P2;PMS_P1;PMS_P2;Temp;Humidity;BMP_temperature;BMP_pressure;BME280_temperature;BME280_humidity;BME280_pressure;Samples;Min_cycle;Max_cycle;Signal;HPM_P1;HPM_P2
2021/05/21 00:01:34;;;;;;;7.37;6.77;;;13.40;99.90;;;;;;4999326;28;20723;-89
2021/05/21 00:04:13;;;;;;;8.37;7.57;;;13.30;99.90;;;;;;4993242;28;21852;-89
2021/05/21 00:06:47;;;;;;;8.20;7.50;;;13.40;99.90;;;;;;4987027;28;21190;-90
2021/05/21 00:09:23;;;;;;;7.50;6.80;;;13.30;99.90;;;;;;4997659;28;20736;-91
2021/05/21 00:11:49;;;;;;;9.07;8.17;;;13.40;99.90;;;;;;5003806;28;20655;-89
2021/05/21 00:14:29;;;;;;;8.77;7.97;;;13.40;99.90;;;;;;5003403;28;20648;-90
2021/05/21 00:17:16;;;;;;;8.60;7.80;;;13.30;99.90;;;;;;5003225;28;20206;-92
2021/05/21 00:19:55;;;;;;;8.97;8.10;;;13.30;99.90;;;;;;5005373;28;20624;-90
2021/05/21 00:22:23;;;;;;;9.03;7.53;;;13.30;99.90;;;;;;5012110;28;20686;-91
2021/05/21 00:24:57;;;;;;;9.10;8.30;;;13.30;99.90;;;;;;5010437;28;20636;-91
2021/05/21 00:27:38;;;;;;;9.07;8.20;;;13.20;99.90;;;;;;5005584;28;20621;-91
2021/05/21 00:30:30;;;;;;;7.93;7.23;;;13.10;99.90;;;;;;5010944;28;20651;-91
2021/05/21 00:33:18;;;;;;;8.00;7.30;;;13.10;99.90;;;;;;4990104;28;20628;-90
2021/05/21 00:35:55;;;;;;;7.87;7.20;;;13.20;99.90;;;;;;5008707;28;20663;-91
2021/05/21 00:38:29;;;;;;;8.20;7.50;;;12.90;99.90;;;;;;5009981;28;20691;-90
2021/05/21 00:41:22;;;;;;;8.67;7.80;;;12.90;99.90;;;;;;5012681;28;20674;-90
2021/05/21 00:44:16;;;;;;;7.87;7.17;;;12.90;99.90;;;;;;4968793;28;20648;-90
2021/05/21 00:46:53;;;;;;;10.50;8.30;;;12.80;99.90;;;;;;5009296;28;20656;-91
2021/05/21 00:49:37;;;;;;;9.40;8.40;;;12.80;99.90;;;;;;5006850;28;20636;-90
2021/05/21 00:52:16;;;;;;;9.53;8.73;;;12.80;99.90;;;;;;5007245;28;20723;-90
2021/05/21 00:57:55;;;;;;;9.20;8.30;;;12.70;99.90;;;;;;5002734;28;20699;-90
2021/05/21 01:00:30;;;;;;;9.40;8.60;;;12.70;99.90;;;;;;5003654;28;20706;-90
2021/05/21 01:03:09;;;;;;;9.30;8.40;;;12.60;99.90;;;;;;5001146;28;20647;-90
2021/05/21 01:05:42;;;;;;;9.10;8.30;;;12.50;99.90;;;;;;5006236;28;20625;-90
2021/05/21 01:08:11;;;;;;;9.37;8.47;;;12.50;99.90;;;;;;5001659;28;21092;-89
2021/05/21 01:10:42;;;;;;;9.40;8.60;;;12.50;99.90;;;;;;5002833;28;20703;-89
2021/05/21 01:13:15;;;;;;;9.77;8.87;;;12.50;99.90;;;;;;4993875;28;22070;-90
2021/05/21 01:15:44;;;;;;;10.70;9.70;;;12.30;99.90;;;;;;5010546;28;20743;-90
2021/05/21 01:19:06;;;;;;;11.17;10.10;;;12.40;99.90;;;;;;5010710;28;20605;-90
2021/05/21 01:21:35;;;;;;;11.30;10.20;;;12.40;99.90;;;;;;5000390;28;20648;-91
2021/05/21 01:24:11;;;;;;;10.37;9.37;;;12.40;99.90;;;;;;4995652;28;20632;-90
2021/05/21 01:26:42;;;;;;;10.20;9.30;;;12.30;99.90;;;;;;5003332;28;21159;-90
2021/05/21 01:32:47;;;;;;;10.40;9.50;;;12.20;99.90;;;;;;5004165;28;20691;-89
2021/05/21 01:35:16;;;;;;;10.37;9.47;;;12.20;99.90;;;;;;4993799;28;20644;-90
2021/05/21 01:37:58;;;;;;;10.27;9.17;;;12.20;99.90;;;;;;5002720;28;20817;-89
2021/05/21 01:40:25;;;;;;;10.30;9.30;;;12.20;99.90;;;;;;5015810;23;20738;-64
2021/05/21 01:42:50;;;;;;;10.57;9.57;;;12.10;99.90;;;;;;4999873;28;20616;-65
2021/05/21 01:45:16;;;;;;;12.33;11.13;;;12.10;99.90;;;;;;5010701;28;20622;-64
2021/05/21 01:47:42;;;;;;;10.60;9.50;;;12.00;99.90;;;;;;5010700;28;20196;-64
2021/05/21 01:50:10;;;;;;;11.37;10.30;;;12.00;99.90;;;;;;5024114;28;20620;-65
2021/05/21 01:52:43;;;;;;;11.20;10.20;;;12.00;99.90;;;;;;5021395;28;20212;-65
2021/05/21 01:55:09;;;;;;;11.47;10.30;;;12.00;99.90;;;;;;5023716;28;20761;-65
2021/05/21 01:57:36;;;;;;;10.60;9.47;;;12.00;99.90;;;;;;5027258;28;20630;-65
2021/05/21 02:00:09;;;;;;;11.50;10.30;;;12.00;99.90;;;;;;5040195;28;20199;-64
2021/05/21 02:02:36;;;;;;;10.77;9.70;;;12.00;99.90;;;;;;5019786;28;20638;-64
2021/05/21 02:05:03;;;;;;;10.87;9.67;;;12.00;99.90;;;;;;5026258;28;20635;-64
2021/05/21 02:07:32;;;;;;;10.10;9.10;;;11.90;99.90;;;;;;5029126;28;20680;-65
2021/05/21 02:10:08;;;;;;;10.30;9.10;;;11.90;99.90;;;;;;5033897;28;20606;-64
2021/05/21 02:12:35;;;;;;;10.10;9.20;;;11.90;99.90;;;;;;5029867;28;20646;-65
2021/05/21 02:15:07;;;;;;;10.97;9.80;;;11.80;99.90;;;;;;5025036;28;20812;-65
2021/05/21 02:17:33;;;;;;;11.53;9.67;;;11.80;99.90;;;;;;5019119;28;20607;-64
2021/05/21 02:20:02;;;;;;;11.10;10.07;;;11.80;99.90;;;;;;5021710;28;20610;-64
2021/05/21 02:22:29;;;;;;;10.50;9.53;;;11.80;99.90;;;;;;5031127;28;20196;-65
2021/05/21 02:24:57;;;;;;;11.30;10.10;;;11.70;99.90;;;;;;5023248;28;20646;-65
2021/05/21 02:27:24;;;;;;;10.97;9.90;;;11.70;99.90;;;;;;5031476;28;20680;-65
2021/05/21 02:29:50;;;;;;;11.10;10.07;;;11.70;99.90;;;;;;5021114;28;20819;-64
2021/05/21 02:32:16;;;;;;;10.83;9.10;;;11.70;99.90;;;;;;5028516;28;20615;-64
2021/05/21 02:34:44;;;;;;;10.90;9.80;;;11.60;99.90;;;;;;5012508;28;20220;-64
2021/05/21 02:37:13;;;;;;;9.63;8.70;;;11.60;99.90;;;;;;5019072;28;20188;-64
2021/05/21 02:39:39;;;;;;;10.67;9.67;;;11.50;99.90;;;;;;5014447;28;21050;-64
2021/05/21 02:42:08;;;;;;;10.53;9.47;;;11.50;99.90;;;;;;5025143;28;20702;-64
2021/05/21 02:44:37;;;;;;;10.63;9.63;;;11.40;99.90;;;;;;5023607;28;20228;-64
2021/05/21 02:47:03;;;;;;;13.10;10.83;;;11.40;99.90;;;;;;5029430;28;21274;-64
2021/05/21 02:49:29;;;;;;;11.13;10.10;;;11.40;99.90;;;;;;5020755;28;20672;-64
2021/05/21 02:51:55;;;;;;;11.17;10.17;;;11.40;99.90;;;;;;5026042;28;20276;-63
2021/05/21 02:54:21;;;;;;;11.53;10.30;;;11.40;99.90;;;;;;5023306;28;20658;-65
2021/05/21 02:56:52;;;;;;;10.80;9.80;;;11.40;99.90;;;;;;5029300;28;20184;-64
2021/05/21 02:59:18;;;;;;;10.70;9.70;;;11.40;99.90;;;;;;5027090;28;20637;-64
2021/05/21 03:01:43;;;;;;;10.63;9.60;;;11.40;99.90;;;;;;5020179;28;20614;-64
2021/05/21 03:04:09;;;;;;;11.00;10.00;;;11.30;99.90;;;;;;5020167;28;20224;-64
2021/05/21 03:06:35;;;;;;;13.10;10.10;;;11.40;99.90;;;;;;5019040;28;20651;-64
2021/05/21 03:09:01;;;;;;;9.83;8.97;;;11.40;99.90;;;;;;5020040;28;20214;-64
2021/05/21 03:11:27;;;;;;;10.97;9.97;;;11.40;99.90;;;;;;5018242;28;20192;-64
2021/05/21 03:13:52;;;;;;;11.10;10.10;;;11.40;99.90;;;;;;5026644;28;20220;-64
2021/05/21 03:16:18;;;;;;;10.23;9.30;;;11.40;99.90;;;;;;5025773;28;21220;-64
2021/05/21 03:18:43;;;;;;;10.73;9.63;;;11.40;99.90;;;;;;5016731;28;21197;-65
2021/05/21 03:21:11;;;;;;;11.50;9.80;;;11.40;99.90;;;;;;5019215;28;20775;-63
2021/05/21 03:23:39;;;;;;;11.50;10.40;;;11.40;99.90;;;;;;5022293;28;20215;-64
2021/05/21 03:26:05;;;;;;;10.83;9.73;;;11.50;99.90;;;;;;5028894;28;20615;-63
2021/05/21 03:28:30;;;;;;;10.90;9.70;;;11.40;99.90;;;;;;5033011;28;20649;-63
2021/05/21 03:30:56;;;;;;;10.00;9.03;;;11.40;99.90;;;;;;5021707;28;20271;-64
2021/05/21 03:33:21;;;;;;;11.20;10.10;;;11.50;99.90;;;;;;5019915;28;20235;-64
2021/05/21 03:35:52;;;;;;;9.60;8.70;;;11.40;99.90;;;;;;5018947;28;20207;-64
2021/05/21 03:38:17;;;;;;;10.87;9.80;;;11.40;99.90;;;;;;5017410;28;20212;-63
2021/05/21 03:40:45;;;;;;;9.70;8.80;;;11.40;99.90;;;;;;5032896;28;20645;-64
2021/05/21 03:43:11;;;;;;;10.73;9.63;;;11.50;99.90;;;;;;5024998;28;20220;-64
2021/05/21 03:45:36;;;;;;;10.93;9.20;;;11.50;99.90;;;;;;5023076;28;22428;-64
2021/05/21 03:48:03;;;;;;;10.17;9.27;;;11.60;99.90;;;;;;5031665;28;20816;-63
2021/05/21 03:50:29;;;;;;;10.07;9.17;;;11.50;99.90;;;;;;5019259;28;20196;-64
2021/05/21 03:52:57;;;;;;;9.93;9.03;;;11.50;99.90;;;;;;5019735;28;21027;-63
2021/05/21 03:55:23;;;;;;;10.43;9.33;;;11.50;99.90;;;;;;5017535;28;20643;-62
2021/05/21 03:57:49;;;;;;;10.53;9.47;;;11.50;99.90;;;;;;5024159;28;20614;-64
2021/05/21 04:00:18;;;;;;;9.67;8.63;;;11.50;99.90;;;;;;5029600;28;20352;-64
2021/05/21 04:02:45;;;;;;;8.80;8.00;;;11.50;99.90;;;;;;5023049;28;20188;-64
2021/05/21 04:05:11;;;;;;;10.17;9.27;;;11.50;99.90;;;;;;5036723;28;20611;-64
2021/05/21 04:07:36;;;;;;;9.50;8.50;;;11.60;99.90;;;;;;5027312;28;20618;-64
2021/05/21 04:10:03;;;;;;;10.23;9.20;;;11.50;99.90;;;;;;5025852;28;20641;-63
2021/05/21 04:12:29;;;;;;;8.83;8.03;;;11.50;99.90;;;;;;5024674;28;20207;-65
2021/05/21 04:14:55;;;;;;;8.80;8.00;;;11.50;99.90;;;;;;5030350;28;20643;-64
2021/05/21 04:17:21;;;;;;;9.17;8.30;;;11.50;99.90;;;;;;5023995;28;20238;-64
2021/05/21 04:19:47;;;;;;;8.80;8.10;;;11.60;99.90;;;;;;5024004;28;20666;-65
2021/05/21 04:22:13;;;;;;;9.00;8.20;;;11.60;99.90;;;;;;5027340;28;20207;-64
2021/05/21 04:24:39;;;;;;;9.30;8.50;;;11.60;99.90;;;;;;5024452;28;21221;-63
2021/05/21 04:27:05;;;;;;;9.80;8.80;;;11.60;99.90;;;;;;5021493;28;20714;-65
2021/05/21 04:29:31;;;;;;;8.13;7.43;;;11.60;99.90;;;;;;5029803;28;20641;-65
2021/05/21 04:31:57;;;;;;;9.40;8.03;;;11.70;99.90;;;;;;5028900;28;20619;-65
2021/05/21 04:34:25;;;;;;;9.43;8.53;;;11.70;99.90;;;;;;5021091;28;20255;-65
2021/05/21 04:36:50;;;;;;;8.50;7.70;;;11.70;99.90;;;;;;5019529;28;20651;-64
2021/05/21 04:39:18;;;;;;;8.70;7.83;;;11.70;99.90;;;;;;5030974;28;20634;-65
2021/05/21 04:41:44;;;;;;;9.07;7.80;;;11.70;99.90;;;;;;5023421;28;20702;-65
2021/05/21 04:44:11;;;;;;;9.30;8.37;;;11.70;99.90;;;;;;5030302;28;20651;-65
2021/05/21 04:46:39;;;;;;;9.10;8.30;;;11.70;99.90;;;;;;5024502;28;20573;-65
2021/05/21 04:49:05;;;;;;;8.97;8.17;;;11.70;99.90;;;;;;5030962;28;20785;-65
2021/05/21 04:51:30;;;;;;;8.87;8.07;;;11.70;99.90;;;;;;5019021;28;21242;-64
2021/05/21 04:53:58;;;;;;;8.50;7.63;;;11.70;99.90;;;;;;5018047;28;20236;-65
2021/05/21 04:56:24;;;;;;;8.90;8.00;;;11.80;99.90;;;;;;5021781;28;20680;-65
2021/05/21 04:58:49;;;;;;;8.57;7.77;;;11.80;99.90;;;;;;5015262;28;20657;-65
2021/05/21 05:01:15;;;;;;;8.60;7.80;;;11.80;99.90;;;;;;5023368;28;20226;-65
2021/05/21 05:03:43;;;;;;;7.80;7.17;;;11.80;99.90;;;;;;5021054;28;20331;-64
2021/05/21 05:06:10;;;;;;;8.30;7.60;;;11.90;99.90;;;;;;5019529;28;20695;-65
2021/05/21 05:08:36;;;;;;;8.50;6.90;;;11.90;99.90;;;;;;5024540;28;20653;-65
2021/05/21 05:11:03;;;;;;;7.80;7.13;;;12.00;99.90;;;;;;5012508;28;22171;-64
2021/05/21 05:13:29;;;;;;;7.97;7.30;;;11.90;99.90;;;;;;5020971;28;20248;-64
2021/05/21 05:15:55;;;;;;;7.30;6.70;;;12.00;99.90;;;;;;5014416;28;23830;-65
2021/05/21 05:18:21;;;;;;;7.20;6.50;;;12.00;99.90;;;;;;5013549;28;20269;-66
2021/05/21 05:20:47;;;;;;;7.00;6.47;;;12.10;99.90;;;;;;5020932;28;20613;-66
2021/05/21 05:23:13;;;;;;;7.63;6.93;;;12.10;99.90;;;;;;5023798;28;20734;-64
2021/05/21 05:25:42;;;;;;;6.63;6.03;;;12.20;99.90;;;;;;5016201;28;20618;-62
2021/05/21 05:28:08;;;;;;;6.97;6.27;;;12.20;99.90;;;;;;5019018;28;21112;-63
2021/05/21 05:30:34;;;;;;;6.83;6.23;;;12.20;99.90;;;;;;5019909;28;20648;-63
2021/05/21 05:33:00;;;;;;;6.80;6.10;;;12.20;99.90;;;;;;5021100;28;21471;-62
2021/05/21 05:35:25;;;;;;;7.17;6.43;;;12.30;99.90;;;;;;5014884;28;20208;-62
2021/05/21 05:37:51;;;;;;;6.60;5.90;;;12.30;99.90;;;;;;4991887;28;20216;-62
2021/05/21 05:40:19;;;;;;;7.40;6.50;;;12.30;99.90;;;;;;5007111;28;20283;-62
2021/05/21 05:42:45;;;;;;;7.27;6.53;;;12.30;99.90;;;;;;5020077;28;20192;-63
2021/05/21 05:45:11;;;;;;;6.10;5.63;;;12.40;99.90;;;;;;5010613;28;21453;-64
2021/05/21 05:47:36;;;;;;;6.73;6.17;;;12.50;99.90;;;;;;5013896;28;20219;-64
2021/05/21 05:50:03;;;;;;;7.47;5.83;;;12.50;99.90;;;;;;5007489;28;21879;-63
2021/05/21 05:52:33;;;;;;;6.10;5.60;;;12.60;99.90;;;;;;5012247;28;20192;-64
2021/05/21 05:54:59;;;;;;;6.37;5.83;;;12.60;99.90;;;;;;5014771;28;20670;-64
2021/05/21 05:57:24;;;;;;;7.07;6.00;;;12.50;99.90;;;;;;5019657;28;20627;-63
2021/05/21 05:59:50;;;;;;;6.20;5.70;;;12.50;99.90;;;;;;5032106;28;20783;-64
2021/05/21 06:02:16;;;;;;;7.00;6.30;;;12.50;99.90;;;;;;5014237;28;20184;-62
2021/05/21 06:04:41;;;;;;;6.50;5.50;;;12.60;99.90;;;;;;4996556;28;20225;-64
2021/05/21 06:07:07;;;;;;;5.73;5.27;;;12.60;99.90;;;;;;5016969;28;20200;-64
2021/05/21 06:09:32;;;;;;;5.30;4.80;;;12.60;99.90;;;;;;5021615;28;20231;-63
2021/05/21 06:11:58;;;;;;;5.30;4.90;;;12.70;99.90;;;;;;5036722;28;20199;-64
2021/05/21 06:14:24;;;;;;;6.10;5.50;;;12.70;99.90;;;;;;5022101;28;20896;-63
2021/05/21 06:16:50;;;;;;;5.57;4.83;;;12.70;99.90;;;;;;5022420;28;20187;-64
2021/05/21 06:19:18;;;;;;;5.80;5.30;;;12.70;99.90;;;;;;5015556;28;20634;-64
2021/05/21 06:21:43;;;;;;;5.33;4.93;;;12.80;99.90;;;;;;5013007;28;20727;-64
2021/05/21 06:24:11;;;;;;;5.63;5.13;;;12.70;99.90;;;;;;5019593;28;20667;-64
2021/05/21 06:29:23;;;;;;;5.90;4.93;;;12.80;99.90;;;;;;4993020;28;21862;-65
2021/05/21 06:31:51;;;;;;;5.57;5.07;;;12.90;99.90;;;;;;5014262;28;20621;-65
2021/05/21 06:34:17;;;;;;;5.00;4.50;;;12.90;99.90;;;;;;5016573;28;20799;-65
2021/05/21 06:36:42;;;;;;;5.33;4.83;;;12.90;99.90;;;;;;5012867;28;20647;-63
2021/05/21 06:39:08;;;;;;;6.10;4.77;;;13.00;99.90;;;;;;5020199;28;20224;-65
2021/05/21 06:41:33;;;;;;;5.40;4.90;;;13.00;99.90;;;;;;5007287;28;20204;-64
2021/05/21 06:43:59;;;;;;;6.50;5.67;;;13.00;99.90;;;;;;5018148;28;22524;-65
2021/05/21 06:46:25;;;;;;;6.00;5.43;;;13.00;99.90;;;;;;5011486;28;20188;-63
2021/05/21 06:48:50;;;;;;;5.07;4.57;;;13.10;99.90;;;;;;5010532;28;20273;-64
2021/05/21 06:51:19;;;;;;;4.90;4.50;;;13.20;99.90;;;;;;5011838;28;20185;-63
2021/05/21 06:53:47;;;;;;;4.70;4.07;;;13.30;99.90;;;;;;5007960;28;22399;-64
2021/05/21 06:56:14;;;;;;;4.37;3.70;;;13.30;99.90;;;;;;5011616;28;20762;-64
2021/05/21 06:58:40;;;;;;;5.07;4.57;;;13.40;99.90;;;;;;5014453;28;20643;-63
2021/05/21 07:01:06;;;;;;;4.43;3.90;;;13.40;99.90;;;;;;5024163;28;20677;-63
2021/05/21 07:03:31;;;;;;;4.63;3.80;;;13.50;99.90;;;;;;5000983;28;20225;-64
2021/05/21 07:05:57;;;;;;;4.60;3.53;;;13.60;99.90;;;;;;5012145;28;20188;-64
2021/05/21 07:08:24;;;;;;;3.67;3.37;;;13.70;99.90;;;;;;5007231;28;20672;-64
2021/05/21 07:10:49;;;;;;;4.20;3.90;;;13.70;99.90;;;;;;5017893;28;20630;-64
2021/05/21 07:13:20;;;;;;;3.80;3.50;;;13.80;99.90;;;;;;5017326;28;24843;-65
2021/05/21 07:15:45;;;;;;;6.40;3.40;;;13.80;99.90;;;;;;5014034;28;20196;-64
2021/05/21 07:18:12;;;;;;;3.73;3.10;;;13.90;99.90;;;;;;5017728;28;21299;-63
2021/05/21 07:20:41;;;;;;;3.40;3.07;;;13.90;99.90;;;;;;5021463;28;20201;-63
2021/05/21 07:23:11;;;;;;;3.60;2.60;;;14.00;99.90;;;;;;5006607;28;20631;-63
2021/05/21 07:25:37;;;;;;;3.30;2.43;;;14.10;99.90;;;;;;5010865;28;20646;-63
2021/05/21 07:28:04;;;;;;;2.10;1.90;;;14.30;99.90;;;;;;5016994;28;21260;-62
2021/05/21 07:30:29;;;;;;;2.63;2.43;;;14.30;99.90;;;;;;5014325;28;20694;-62
2021/05/21 07:32:55;;;;;;;2.40;2.27;;;14.50;99.90;;;;;;5014937;28;20761;-62
2021/05/21 07:35:23;;;;;;;4.13;2.10;;;14.70;99.90;;;;;;5018727;28;20348;-63
2021/05/21 07:37:50;;;;;;;2.27;2.07;;;14.80;99.90;;;;;;5007090;28;20601;-64
2021/05/21 07:40:17;;;;;;;2.43;2.23;;;14.90;99.90;;;;;;5020344;28;21508;-65
2021/05/21 07:42:43;;;;;;;2.63;2.43;;;15.00;99.90;;;;;;5012498;28;21408;-64
2021/05/21 07:45:12;;;;;;;2.53;2.33;;;15.00;99.90;;;;;;5016541;28;20603;-65
2021/05/21 07:47:37;;;;;;;4.17;2.67;;;15.20;99.90;;;;;;5011201;28;20334;-64
2021/05/21 07:50:05;;;;;;;3.10;2.60;;;15.30;99.90;;;;;;5029550;28;20776;-65
2021/05/21 07:52:31;;;;;;;2.90;2.70;;;15.50;99.90;;;;;;5024932;28;20192;-64
2021/05/21 07:54:57;;;;;;;3.70;2.63;;;15.60;99.90;;;;;;5017979;28;21308;-65
2021/05/21 07:57:25;;;;;;;2.97;2.77;;;15.80;99.90;;;;;;5011439;28;20909;-65
2021/05/21 07:59:50;;;;;;;3.33;3.10;;;15.90;99.90;;;;;;5011420;28;20928;-64
2021/05/21 08:02:16;;;;;;;2.90;2.70;;;16.00;99.90;;;;;;5013896;28;21338;-63
2021/05/21 08:04:41;;;;;;;3.13;2.93;;;16.00;99.90;;;;;;5006337;28;20739;-63
2021/05/21 08:07:07;;;;;;;3.03;2.73;;;16.10;99.90;;;;;;5022563;28;20196;-64
2021/05/21 08:09:37;;;;;;;2.43;2.20;;;16.10;99.90;;;;;;5018293;28;20201;-65
2021/05/21 08:12:05;;;;;;;4.50;2.80;;;15.90;99.90;;;;;;5017307;28;20195;-65
2021/05/21 08:14:31;;;;;;;3.30;3.10;;;16.00;99.90;;;;;;5015078;28;21649;-64
2021/05/21 08:16:59;;;;;;;3.07;2.80;;;16.00;99.90;;;;;;5025155;28;20623;-64
2021/05/21 08:19:24;;;;;;;3.30;3.00;;;16.00;99.90;;;;;;5030803;28;20212;-64
2021/05/21 08:21:54;;;;;;;4.23;3.80;;;15.80;99.90;;;;;;5018887;28;20650;-64
2021/05/21 08:24:22;;;;;;;3.13;1.80;;;15.80;99.90;;;;;;5025709;28;20222;-64
2021/05/21 08:26:48;;;;;;;3.67;2.30;;;15.40;99.90;;;;;;5027677;28;20629;-64
2021/05/21 08:29:13;;;;;;;2.40;1.70;;;14.80;99.90;;;;;;5031741;28;20655;-64
2021/05/21 08:31:41;;;;;;;3.13;1.90;;;14.40;99.90;;;;;;5029409;28;20219;-65
2021/05/21 08:34:06;;;;;;;7.30;2.13;;;14.10;99.90;;;;;;5020893;28;20227;-64
2021/05/21 08:36:32;;;;;;;3.87;1.97;;;13.70;99.90;;;;;;5018656;28;20643;-65
2021/05/21 08:38:58;;;;;;;3.23;1.87;;;13.40;99.90;;;;;;5022844;28;20212;-64
2021/05/21 08:41:25;;;;;;;2.87;2.07;;;13.10;99.90;;;;;;5020453;28;20204;-64
2021/05/21 08:43:52;;;;;;;4.10;2.10;;;13.00;99.90;;;;;;5027196;28;21711;-64
2021/05/21 08:46:19;;;;;;;1.80;1.70;;;12.80;99.90;;;;;;5028958;28;20733;-65
2021/05/21 08:48:48;;;;;;;3.83;2.13;;;12.70;99.90;;;;;;5023234;28;20653;-64
2021/05/21 08:51:17;;;;;;;2.30;2.10;;;12.70;99.90;;;;;;5022391;28;20622;-64
2021/05/21 08:53:43;;;;;;;3.30;2.40;;;12.60;99.90;;;;;;5027844;28;20649;-64
2021/05/21 08:56:10;;;;;;;3.30;2.50;;;12.70;99.90;;;;;;5025724;28;20996;-65
2021/05/21 08:58:36;;;;;;;3.70;2.33;;;12.70;99.90;;;;;;5023233;28;20211;-64
2021/05/21 09:03:32;;;;;;;3.50;2.50;;;12.80;99.90;;;;;;4956333;28;20693;-62
2021/05/21 09:06:12;;;;;;;3.40;2.67;;;12.80;99.90;;;;;;4953002;28;20665;-62
2021/05/21 09:08:51;;;;;;;3.70;2.67;;;12.90;99.90;;;;;;4967406;28;20644;-62
2021/05/21 09:11:39;;;;;;;5.23;3.23;;;12.90;99.90;;;;;;4970832;28;20642;-62
2021/05/21 09:14:06;;;;;;;3.60;3.03;;;13.00;99.90;;;;;;4977890;28;20640;-62
2021/05/21 09:16:42;;;;;;;3.93;3.20;;;13.00;99.90;;;;;;4971121;28;21447;-61
2021/05/21 09:19:22;;;;;;;4.70;3.40;;;13.00;99.90;;;;;;4975305;28;20661;-62
2021/05/21 09:22:09;;;;;;;3.43;3.10;;;13.20;99.90;;;;;;4976249;28;20643;-61
2021/05/21 09:24:39;;;;;;;4.80;2.93;;;13.40;99.90;;;;;;4973577;28;20639;-61
2021/05/21 09:27:06;;;;;;;3.60;3.13;;;13.40;99.90;;;;;;4987194;28;20679;-62
2021/05/21 09:29:52;;;;;;;4.77;2.90;;;13.50;99.90;;;;;;4975594;28;21066;-62
2021/05/21 09:32:30;;;;;;;3.30;2.83;;;13.60;99.90;;;;;;4982741;28;20612;-61
2021/05/21 09:35:10;;;;;;;2.93;2.73;;;13.60;99.90;;;;;;4974645;28;20652;-63
2021/05/21 09:37:40;;;;;;;4.70;2.77;;;13.70;99.90;;;;;;4990980;28;20666;-62
2021/05/21 09:40:19;;;;;;;6.40;3.10;;;13.80;99.90;;;;;;4963162;28;20609;-61
2021/05/21 09:42:49;;;;;;;7.73;3.00;;;13.90;99.90;;;;;;4991193;28;20623;-62
2021/05/21 09:45:36;;;;;;;5.30;3.00;;;13.90;99.90;;;;;;5008547;28;20652;-62
2021/05/21 09:48:07;;;;;;;6.80;2.80;;;14.10;99.90;;;;;;4997255;28;20651;-62
2021/05/21 09:50:41;;;;;;;6.17;3.00;;;14.20;99.90;;;;;;4978814;28;20625;-62
2021/05/21 09:53:20;;;;;;;8.37;3.10;;;14.30;99.90;;;;;;4986368;28;20707;-62
2021/05/21 09:56:03;;;;;;;5.63;2.73;;;14.40;99.90;;;;;;4985074;28;20750;-62
2021/05/21 09:58:31;;;;;;;5.30;2.60;;;14.50;99.90;;;;;;4984219;28;20758;-62
2021/05/21 10:01:04;;;;;;;4.80;2.60;;;14.60;99.90;;;;;;4981474;28;20639;-62
2021/05/21 10:03:31;;;;;;;6.23;3.37;;;14.60;99.90;;;;;;4995689;28;20656;-63
2021/05/21 10:05:56;;;;;;;6.40;3.20;;;14.70;99.90;;;;;;4979107;28;20616;-62
2021/05/21 10:08:24;;;;;;;7.20;2.70;;;14.80;99.90;;;;;;4988105;28;20655;-63
2021/05/21 10:10:51;;;;;;;4.47;2.53;;;14.80;99.90;;;;;;4982051;28;20198;-63
2021/05/21 10:13:20;;;;;;;3.90;2.40;;;14.90;99.90;;;;;;4979271;28;22865;-64
2021/05/21 10:15:45;;;;;;;4.97;2.70;;;14.90;99.90;;;;;;4996738;28;20821;-63
2021/05/21 10:18:13;;;;;;;3.97;2.40;;;15.00;99.90;;;;;;4987422;28;23033;-64
2021/05/21 10:20:43;;;;;;;3.80;2.90;;;15.20;99.90;;;;;;4983383;28;20189;-64
2021/05/21 10:23:11;;;;;;;3.43;2.47;;;15.30;99.90;;;;;;5001254;28;20624;-64
2021/05/21 10:25:38;;;;;;;6.67;2.30;;;15.50;99.90;;;;;;4980327;28;21101;-61
2021/05/21 10:28:06;;;;;;;5.73;2.50;;;15.60;99.90;;;;;;4994099;28;20684;-62
2021/05/21 10:30:37;;;;;;;8.00;2.43;;;15.70;99.90;;;;;;4988206;28;20643;-61
2021/05/21 10:33:16;;;;;;;5.23;2.00;;;15.80;99.90;;;;;;4986651;28;20632;-62
2021/05/21 10:35:42;;;;;;;4.97;1.87;;;15.80;99.90;;;;;;4973964;28;20694;-64
2021/05/21 10:38:19;;;;;;;4.33;2.10;;;15.90;99.90;;;;;;4977664;28;20706;-62
2021/05/21 10:40:44;;;;;;;3.20;1.93;;;16.00;99.90;;;;;;4964528;28;21046;-62
2021/05/21 10:43:17;;;;;;;3.93;2.10;;;16.10;99.90;;;;;;4959005;28;20668;-62
2021/05/21 10:45:55;;;;;;;4.50;1.90;;;16.30;99.90;;;;;;4967840;28;20194;-62
2021/05/21 10:48:28;;;;;;;6.10;2.57;;;16.40;99.90;;;;;;4957688;28;20677;-62
2021/05/21 10:51:07;;;;;;;5.73;2.20;;;16.50;99.90;;;;;;4966208;28;20613;-63
2021/05/21 10:53:40;;;;;;;3.37;1.90;;;16.60;99.90;;;;;;4972269;28;20621;-62
2021/05/21 10:56:06;;;;;;;6.20;2.40;;;16.70;99.90;;;;;;4971536;28;20649;-63
2021/05/21 10:58:38;;;;;;;4.07;2.67;;;16.80;99.90;;;;;;4971895;28;20672;-63
2021/05/21 11:01:08;;;;;;;6.73;2.50;;;16.90;99.90;;;;;;4972645;28;20183;-63
2021/05/21 11:04:03;;;;;;;7.50;2.53;;;17.10;99.90;;;;;;4951702;28;20661;-63
2021/05/21 11:06:42;;;;;;;7.23;3.50;;;17.20;99.90;;;;;;4953596;28;21723;-62
2021/05/21 11:09:16;;;;;;;4.90;2.17;;;17.30;99.90;;;;;;4966680;28;20715;-62
2021/05/21 11:11:45;;;;;;;6.10;3.10;;;17.30;99.90;;;;;;4984959;28;20628;-62
2021/05/21 11:14:35;;;;;;;5.20;3.00;;;17.40;99.90;;;;;;4974445;28;20668;-62
2021/05/21 11:17:26;;;;;;;4.77;2.40;;;17.40;99.90;;;;;;4969980;28;20609;-63
2021/05/21 11:19:59;;;;;;;7.20;2.70;;;17.40;99.90;;;;;;4961691;28;24797;-63
2021/05/21 11:22:38;;;;;;;5.07;2.67;;;17.50;99.90;;;;;;4976254;28;20656;-63
2021/05/21 11:25:04;;;;;;;7.40;2.73;;;17.60;99.90;;;;;;4959397;28;20641;-63
2021/05/21 11:27:35;;;;;;;4.90;2.10;;;17.70;99.90;;;;;;4965472;28;20652;-63
2021/05/21 11:30:14;;;;;;;4.23;2.37;;;17.70;99.90;;;;;;4952596;28;20925;-65
2021/05/21 11:32:41;;;;;;;4.47;2.20;;;17.70;99.90;;;;;;4950525;28;20640;-63
2021/05/21 11:35:12;;;;;;;3.83;2.30;;;17.60;99.90;;;;;;4947528;28;20648;-63
2021/05/21 11:37:40;;;;;;;3.50;2.20;;;17.50;99.90;;;;;;4958246;28;20613;-63
2021/05/21 11:40:07;;;;;;;3.17;2.23;;;17.40;99.90;;;;;;4969450;28;20712;-63
2021/05/21 11:42:35;;;;;;;3.40;2.57;;;17.40;99.90;;;;;;4979175;28;20625;-64
2021/05/21 11:45:02;;;;;;;2.43;1.83;;;17.50;99.90;;;;;;4960706;28;20656;-65
2021/05/21 11:47:30;;;;;;;5.70;2.43;;;17.40;99.90;;;;;;4976130;28;21395;-62
2021/05/21 11:49:59;;;;;;;3.87;2.60;;;17.30;99.90;;;;;;4962863;28;20641;-62
2021/05/21 11:52:25;;;;;;;4.40;2.00;;;17.20;99.90;;;;;;4973620;28;21002;-62
2021/05/21 11:54:54;;;;;;;4.80;2.37;;;17.10;99.90;;;;;;4977546;28;20784;-62
2021/05/21 11:57:20;;;;;;;5.20;2.70;;;17.10;99.90;;;;;;4975867;28;20643;-62
2021/05/21 11:59:47;;;;;;;4.23;2.37;;;16.90;99.90;;;;;;4966781;28;20640;-64
2021/05/21 12:02:16;;;;;;;4.27;2.00;;;16.70;99.90;;;;;;4971816;28;20729;-64
2021/05/21 12:04:43;;;;;;;6.33;2.50;;;16.60;99.90;;;;;;4970424;28;20642;-64
2021/05/21 12:07:22;;;;;;;5.20;2.50;;;16.50;99.90;;;;;;4973406;28;20964;-64
2021/05/21 12:10:03;;;;;;;3.20;2.50;;;16.40;99.90;;;;;;4985913;28;20735;-63
2021/05/21 12:12:34;;;;;;;4.43;2.00;;;16.30;99.90;;;;;;4966520;28;20609;-63
2021/05/21 12:15:14;;;;;;;3.00;2.20;;;16.30;99.90;;;;;;4976429;28;20752;-63
2021/05/21 12:17:47;;;;;;;2.63;1.60;;;16.20;99.90;;;;;;4976577;28;20807;-63
2021/05/21 12:20:14;;;;;;;6.60;1.77;;;16.00;99.90;;;;;;4964913;28;20950;-63
2021/05/21 12:23:00;;;;;;;3.50;2.00;;;16.10;99.90;;;;;;4971087;28;20640;-63
2021/05/21 12:25:29;;;;;;;3.13;1.80;;;16.00;99.90;;;;;;4977562;28;20617;-63
2021/05/21 12:27:55;;;;;;;3.63;2.20;;;16.00;99.90;;;;;;4980772;28;21904;-63
2021/05/21 12:30:21;;;;;;;3.30;2.03;;;16.20;99.90;;;;;;4973847;28;20631;-64
2021/05/21 12:32:48;;;;;;;3.43;2.20;;;16.30;99.90;;;;;;4974168;28;20625;-62
2021/05/21 12:35:20;;;;;;;4.07;2.60;;;16.50;99.90;;;;;;5004129;28;20640;-63
2021/05/21 12:37:47;;;;;;;5.20;2.30;;;16.50;99.90;;;;;;4998686;28;20727;-63
2021/05/21 12:40:15;;;;;;;4.07;2.30;;;16.60;99.90;;;;;;4994219;28;20751;-63
2021/05/21 12:42:54;;;;;;;3.37;2.37;;;16.70;99.90;;;;;;4996433;28;20612;-62
2021/05/21 12:45:20;;;;;;;3.83;2.30;;;16.70;99.90;;;;;;4990542;28;20670;-62
2021/05/21 12:47:47;;;;;;;5.73;2.13;;;16.80;99.90;;;;;;4991167;28;20620;-62
2021/05/21 12:50:15;;;;;;;2.87;1.90;;;17.00;99.90;;;;;;4992739;28;20608;-63
2021/05/21 12:53:05;;;;;;;4.20;2.23;;;17.00;99.90;;;;;;4996029;28;20615;-62
2021/05/21 12:55:32;;;;;;;5.07;2.60;;;17.20;99.90;;;;;;4995440;28;21015;-63
2021/05/21 12:58:00;;;;;;;4.03;2.33;;;17.40;99.90;;;;;;5012080;28;20643;-63
2021/05/21 13:00:28;;;;;;;7.03;2.30;;;17.70;99.90;;;;;;4992468;28;20640;-63
2021/05/21 13:02:56;;;;;;;4.40;1.90;;;17.80;99.90;;;;;;5010898;28;20639;-63
2021/05/21 13:05:28;;;;;;;4.33;2.50;;;18.00;99.90;;;;;;4994425;28;20616;-63
2021/05/21 13:08:04;;;;;;;2.37;1.77;;;18.10;99.90;;;;;;5010087;28;20743;-66